createdAt,value
2018-02-19T00:01:54.353Z,74.55
2018-02-19T00:04:21.900Z,75.15
2018-02-19T00:06:49.457Z,74.66
2018-02-19T00:09:17.046Z,75.43
2018-02-19T00:11:44.581Z,75.03
2018-02-19T00:14:12.144Z,75.44
2018-02-19T00:16:39.674Z,74.51
2018-02-19T00:19:07.443Z,75.36
2018-02-19T00:21:34.950Z,75.41
2018-02-19T00:24:02.485Z,74.97
2018-02-19T00:26:30.048Z,74.89
2018-02-19T00:28:57.574Z,74.57
2018-02-19T00:31:25.140Z,75.42
2018-02-19T00:33:52.669Z,75.04
2018-02-19T00:36:20.191Z,74.90
2018-02-19T00:38:47.994Z,75.72
2018-02-19T00:41:15.498Z,75.12
2018-02-19T00:43:43.049Z,74.89
2018-02-19T00:46:10.573Z,74.16
2018-02-19T00:48:38.091Z,75.50
2018-02-19T00:51:05.630Z,75.22
2018-02-19T00:53:33.185Z,74.43
2018-02-19T00:56:00.781Z,75.31
2018-02-19T00:58:28.317Z,75.28
2018-02-19T01:00:55.880Z,74.74
2018-02-19T01:03:23.429Z,75.48
2018-02-19T01:05:50.977Z,74.62
2018-02-19T01:08:19.142Z,75.33
2018-02-19T01:10:46.709Z,75.41
2018-02-19T01:13:14.365Z,75.20
2018-02-19T01:15:41.893Z,74.61
2018-02-19T01:18:09.430Z,74.74
2018-02-19T01:20:36.953Z,74.52
2018-02-19T01:23:04.470Z,74.83
2018-02-19T01:25:31.998Z,75.13
2018-02-19T01:27:59.530Z,74.92
2018-02-19T01:30:27.096Z,75.09
2018-02-19T01:32:54.610Z,74.11
2018-02-19T01:35:22.153Z,75.30
2018-02-19T01:37:49.674Z,74.74
2018-02-19T01:40:17.186Z,75.43
2018-02-19T01:42:44.761Z,75.27
2018-02-19T01:45:12.319Z,75.75
2018-02-19T01:47:39.852Z,75.50
2018-02-19T01:50:15.998Z,75.02
2018-02-19T01:52:43.516Z,75.42
2018-02-19T01:55:11.056Z,75.27
2018-02-19T01:57:38.590Z,75.43
2018-02-19T02:00:06.300Z,75.57
2018-02-19T02:02:33.865Z,75.60
2018-02-19T02:05:01.402Z,75.31
2018-02-19T02:07:28.941Z,75.17
2018-02-19T02:09:56.463Z,75.19
2018-02-19T02:12:24.012Z,74.97
2018-02-19T02:14:51.526Z,75.33
2018-02-19T02:17:19.112Z,75.74
2018-02-19T02:19:46.636Z,75.11
2018-02-19T02:22:14.163Z,75.10
2018-02-19T02:24:41.725Z,74.48
2018-02-19T02:27:10.069Z,74.72
2018-02-19T02:29:37.848Z,75.59
2018-02-19T02:32:05.367Z,74.41
2018-02-19T02:34:32.909Z,75.32
2018-02-19T02:37:00.745Z,74.48
2018-02-19T02:39:28.279Z,74.45
2018-02-19T02:41:55.906Z,75.35
2018-02-19T02:44:23.453Z,75.53
2018-02-19T02:46:50.975Z,73.94
2018-02-19T02:49:18.497Z,74.84
2018-02-19T02:51:46.015Z,74.33
2018-02-19T02:54:13.538Z,74.87
2018-02-19T02:56:41.055Z,75.06
2018-02-19T02:59:08.570Z,75.61
2018-02-19T03:01:36.124Z,74.94
2018-02-19T03:04:03.677Z,75.65
2018-02-19T03:06:31.199Z,75.32
2018-02-19T03:08:58.724Z,75.40
2018-02-19T03:11:26.251Z,74.98
2018-02-19T03:13:53.804Z,75.34
2018-02-19T03:16:21.332Z,74.88
2018-02-19T03:18:48.869Z,75.52
2018-02-19T03:21:16.398Z,75.70
2018-02-19T03:23:43.927Z,75.08
2018-02-19T03:26:11.501Z,75.02
2018-02-19T03:28:39.033Z,75.11
2018-02-19T03:31:06.589Z,75.13
2018-02-19T03:33:34.104Z,74.33
2018-02-19T03:36:01.620Z,75.48
2018-02-19T03:38:29.184Z,75.58
2018-02-19T03:40:56.988Z,75.65
2018-02-19T03:43:24.560Z,74.65
2018-02-19T03:45:52.082Z,75.29
2018-02-19T03:48:19.630Z,74.88
2018-02-19T03:50:47.149Z,74.86
2018-02-19T03:53:14.657Z,75.30
2018-02-19T03:55:42.205Z,75.65
2018-02-19T03:58:09.760Z,74.42
2018-02-19T04:00:37.324Z,74.72
2018-02-19T04:03:04.870Z,74.46
2018-02-19T04:05:32.412Z,74.15
2018-02-19T04:08:00.282Z,75.00
2018-02-19T04:10:27.887Z,74.23
2018-02-19T04:12:56.346Z,75.19
2018-02-19T04:15:24.020Z,75.31
2018-02-19T04:17:51.540Z,74.01
2018-02-19T04:20:19.087Z,75.36
2018-02-19T04:22:46.616Z,74.36
2018-02-19T04:25:14.197Z,74.66
2018-02-19T04:27:41.718Z,74.84
2018-02-19T04:30:09.462Z,75.77
2018-02-19T04:32:37.033Z,74.30
2018-02-19T04:35:04.559Z,75.32
2018-02-19T04:37:32.121Z,74.98
2018-02-19T04:39:59.685Z,75.26
2018-02-19T04:42:27.224Z,74.73
2018-02-19T04:45:00.688Z,74.82
2018-02-19T04:47:28.208Z,74.36
2018-02-19T04:49:55.763Z,74.94
2018-02-19T04:52:23.293Z,75.15
2018-02-19T04:54:51.018Z,75.09
2018-02-19T04:57:18.565Z,74.39
2018-02-19T04:59:46.121Z,75.45
2018-02-19T05:02:13.679Z,74.73
2018-02-19T05:04:41.204Z,74.75
2018-02-19T05:07:08.722Z,74.98
2018-02-19T05:09:36.255Z,74.86
2018-02-19T05:12:03.872Z,74.71
2018-02-19T05:14:31.558Z,73.77
2018-02-19T05:16:59.086Z,75.31
2018-02-19T05:19:26.625Z,74.75
2018-02-19T05:21:54.512Z,75.36
2018-02-19T05:24:22.035Z,74.63
2018-02-19T05:26:49.571Z,75.04
2018-02-19T05:29:17.096Z,75.27
2018-02-19T05:31:46.260Z,74.83
2018-02-19T05:34:13.793Z,75.32
2018-02-19T05:36:41.351Z,74.98
2018-02-19T05:39:08.878Z,75.02
2018-02-19T05:41:36.449Z,75.19
2018-02-19T05:44:04.030Z,74.12
2018-02-19T05:46:31.567Z,74.97
2018-02-19T05:48:59.104Z,75.58
2018-02-19T05:51:26.648Z,75.49
2018-02-19T05:53:54.171Z,74.74
2018-02-19T05:56:21.719Z,74.97
2018-02-19T05:58:49.233Z,75.21
2018-02-19T06:01:16.780Z,75.66
2018-02-19T06:03:44.321Z,74.49
2018-02-19T06:06:11.837Z,75.57
2018-02-19T06:08:40.459Z,75.19
2018-02-19T06:11:07.988Z,74.32
2018-02-19T06:13:35.549Z,75.12
2018-02-19T06:16:03.271Z,75.38
2018-02-19T06:18:30.900Z,74.53
2018-02-19T06:20:58.421Z,75.31
2018-02-19T06:23:26.227Z,75.57
2018-02-19T06:25:53.803Z,74.99
2018-02-19T06:28:21.365Z,75.41
2018-02-19T06:30:49.122Z,75.79
2018-02-19T06:33:16.657Z,75.44
2018-02-19T06:35:44.209Z,75.83
2018-02-19T06:38:11.949Z,74.99
2018-02-19T06:40:39.470Z,75.69
2018-02-19T06:43:07.099Z,75.38
2018-02-19T06:45:34.652Z,75.34
2018-02-19T06:48:02.182Z,75.45
2018-02-19T06:50:29.742Z,74.17
2018-02-19T06:52:57.473Z,75.27
2018-02-19T06:55:24.993Z,73.63
2018-02-19T06:57:52.517Z,75.15
2018-02-19T07:00:20.076Z,74.99
2018-02-19T07:02:47.686Z,74.66
2018-02-19T07:05:15.263Z,74.79
2018-02-19T07:07:42.845Z,75.27
2018-02-19T07:10:10.374Z,73.19
2018-02-19T07:12:37.947Z,68.44
2018-02-19T07:15:05.479Z,81.10
2018-02-19T07:17:33.277Z,67.04
2018-02-19T07:20:00.891Z,65.46
2018-02-19T07:22:28.448Z,65.39
2018-02-19T07:24:56.098Z,66.67
2018-02-19T07:27:23.634Z,67.86
2018-02-19T07:29:51.173Z,67.31
2018-02-19T07:32:18.718Z,67.90
2018-02-19T07:34:46.243Z,64.34
2018-02-19T07:37:13.776Z,69.15
2018-02-19T07:39:41.320Z,65.85
2018-02-19T07:42:08.856Z,63.29
2018-02-19T07:44:36.392Z,62.82
2018-02-19T07:47:03.918Z,61.75
2018-02-19T07:49:31.438Z,61.30
2018-02-19T07:51:58.996Z,60.78
2018-02-19T07:54:26.534Z,60.71
2018-02-19T07:56:54.054Z,60.46
2018-02-19T07:59:21.579Z,60.72
2018-02-19T08:01:49.128Z,64.60
2018-02-19T08:04:16.654Z,61.22
2018-02-19T08:06:44.190Z,60.54
2018-02-19T08:09:11.724Z,62.60
2018-02-19T08:11:39.263Z,61.66
2018-02-19T08:14:06.821Z,61.43
2018-02-19T08:16:34.348Z,61.13
2018-02-19T08:19:01.871Z,61.25
2018-02-19T08:21:29.443Z,60.34
2018-02-19T08:23:57.011Z,61.09
2018-02-19T08:26:24.553Z,60.30
2018-02-19T08:28:52.098Z,60.17
2018-02-19T08:31:19.634Z,59.71
2018-02-19T08:33:47.180Z,62.75
2018-02-19T08:36:14.729Z,60.60
2018-02-19T08:38:42.272Z,60.24
2018-02-19T08:41:09.861Z,59.68
2018-02-19T08:43:37.538Z,59.83
2018-02-19T08:46:05.065Z,59.70
2018-02-19T08:48:32.595Z,61.81
2018-02-19T08:51:00.137Z,61.57
2018-02-19T08:53:27.680Z,60.35
2018-02-19T08:55:55.240Z,59.60
2018-02-19T08:58:22.772Z,59.08
2018-02-19T09:00:50.348Z,60.13
2018-02-19T09:03:17.887Z,59.12
2018-02-19T09:05:45.449Z,61.02
2018-02-19T09:08:12.990Z,61.45
2018-02-19T09:10:40.535Z,59.07
2018-02-19T09:13:08.071Z,58.94
2018-02-19T09:15:35.607Z,58.95
2018-02-19T09:18:03.147Z,58.42
2018-02-19T09:20:30.694Z,58.39
2018-02-19T09:22:58.212Z,58.52
2018-02-19T09:25:25.759Z,59.38
2018-02-19T09:27:53.283Z,62.16
2018-02-19T09:30:20.850Z,63.13
2018-02-19T09:32:48.386Z,61.52
2018-02-19T09:35:16.156Z,59.89
2018-02-19T09:37:44.197Z,59.42
2018-02-19T09:40:11.770Z,58.51
2018-02-19T09:42:39.324Z,58.59
2018-02-19T09:45:06.849Z,58.40
2018-02-19T09:47:34.386Z,59.06
2018-02-19T09:50:01.912Z,59.93
2018-02-19T09:52:29.443Z,57.82
2018-02-19T09:54:56.996Z,56.94
2018-02-19T09:57:24.521Z,56.57
2018-02-19T09:59:52.048Z,56.84
2018-02-19T10:02:19.623Z,56.99
2018-02-19T10:04:47.161Z,57.60
2018-02-19T10:07:14.702Z,56.99
2018-02-19T10:09:42.237Z,56.29
2018-02-19T10:12:09.775Z,56.23
2018-02-19T10:14:37.329Z,56.07
2018-02-19T10:17:04.899Z,55.37
2018-02-19T10:19:32.431Z,54.92
2018-02-19T10:22:00.025Z,54.82
2018-02-19T10:24:27.564Z,54.75
2018-02-19T10:26:55.126Z,54.73
2018-02-19T10:29:22.649Z,54.80
2018-02-19T10:31:50.182Z,54.91
2018-02-19T10:34:17.737Z,55.13
2018-02-19T10:36:45.254Z,55.42
2018-02-19T10:39:13.153Z,55.87
2018-02-19T10:41:40.687Z,55.95
2018-02-19T10:44:08.243Z,56.01
2018-02-19T10:46:35.770Z,56.30
2018-02-19T10:49:03.313Z,56.14
2018-02-19T10:51:30.853Z,55.95
2018-02-19T10:53:58.397Z,56.39
2018-02-19T10:56:25.951Z,56.61
2018-02-19T10:58:53.707Z,56.04
2018-02-19T11:01:21.268Z,56.25
2018-02-19T11:03:48.815Z,56.28
2018-02-19T11:06:16.352Z,56.62
2018-02-19T11:08:43.892Z,59.09
2018-02-19T11:11:11.414Z,60.73
2018-02-19T11:13:39.113Z,60.79
2018-02-19T11:16:06.666Z,61.14
2018-02-19T11:18:34.204Z,59.67
2018-02-19T11:21:01.734Z,58.15
2018-02-19T11:23:29.259Z,58.78
2018-02-19T11:25:56.861Z,58.51
2018-02-19T11:28:24.398Z,59.91
2018-02-19T11:30:51.962Z,59.06
2018-02-19T11:33:19.532Z,58.84
2018-02-19T11:35:47.082Z,59.35
2018-02-19T11:38:14.618Z,59.95
2018-02-19T11:40:42.141Z,58.82
2018-02-19T11:43:09.700Z,58.85
2018-02-19T11:45:37.232Z,59.12
2018-02-19T11:48:04.754Z,59.07
2018-02-19T11:50:32.319Z,59.21
2018-02-19T11:52:59.889Z,59.87
2018-02-19T11:55:27.447Z,60.29
2018-02-19T11:57:54.974Z,59.32
2018-02-19T12:00:22.533Z,59.20
2018-02-19T12:02:50.050Z,59.15
2018-02-19T12:05:17.612Z,58.87
2018-02-19T12:07:45.124Z,58.00
2018-02-19T12:10:12.686Z,57.34
2018-02-19T12:12:40.261Z,57.63
2018-02-19T12:15:07.792Z,58.36
2018-02-19T12:17:35.325Z,58.15
2018-02-19T12:20:02.854Z,58.39
2018-02-19T12:22:30.398Z,58.32
2018-02-19T12:24:57.957Z,58.46
2018-02-19T12:27:25.479Z,58.64
2018-02-19T12:29:53.005Z,57.75
2018-02-19T12:32:20.536Z,57.77
2018-02-19T12:34:48.065Z,58.34
2018-02-19T12:37:15.617Z,57.49
2018-02-19T12:39:43.152Z,56.33
2018-02-19T12:42:10.726Z,56.32
2018-02-19T12:44:38.242Z,56.43
2018-02-19T12:47:06.163Z,56.72
2018-02-19T12:49:33.732Z,56.53
2018-02-19T12:52:01.247Z,56.25
2018-02-19T12:54:28.779Z,55.97
2018-02-19T12:56:56.302Z,55.24
2018-02-19T12:59:23.820Z,56.85
2018-02-19T13:01:51.354Z,56.48
2018-02-19T13:04:18.867Z,56.16
2018-02-19T13:06:46.366Z,55.78
2018-02-19T13:09:13.960Z,56.73
2018-02-19T13:11:41.498Z,56.57
2018-02-19T13:14:09.055Z,56.81
2018-02-19T13:16:36.569Z,56.99
2018-02-19T13:19:04.091Z,57.15
2018-02-19T13:21:31.628Z,57.40
2018-02-19T13:23:59.155Z,56.22
2018-02-19T13:26:27.454Z,56.74
2018-02-19T13:28:55.021Z,56.56
2018-02-19T13:31:22.843Z,56.33
2018-02-19T13:33:50.393Z,56.05
2018-02-19T13:36:17.932Z,55.69
2018-02-19T13:38:45.453Z,55.85
2018-02-19T13:41:12.973Z,56.49
2018-02-19T13:43:40.944Z,56.11
2018-02-19T13:46:08.474Z,55.60
2018-02-19T13:48:36.020Z,56.15
2018-02-19T13:51:03.540Z,56.43
2018-02-19T13:53:31.058Z,56.44
2018-02-19T13:55:58.718Z,56.16
2018-02-19T13:58:26.243Z,57.33
2018-02-19T14:00:53.804Z,57.45
2018-02-19T14:03:21.327Z,57.44
2018-02-19T14:05:48.880Z,58.16
2018-02-19T14:08:16.398Z,58.78
2018-02-19T14:10:43.940Z,58.54
2018-02-19T14:13:11.502Z,58.25
2018-02-19T14:15:39.034Z,57.81
2018-02-19T14:18:06.589Z,57.79
2018-02-19T14:20:34.120Z,58.01
2018-02-19T14:23:01.627Z,57.89
2018-02-19T14:25:29.141Z,58.80
2018-02-19T14:27:56.662Z,58.98
2018-02-19T14:30:24.190Z,60.33
2018-02-19T14:32:51.717Z,60.36
2018-02-19T14:35:19.361Z,60.91
2018-02-19T14:37:46.873Z,60.57
2018-02-19T14:40:14.401Z,60.03
2018-02-19T14:42:41.952Z,60.95
2018-02-19T14:45:09.480Z,61.15
2018-02-19T14:47:37.009Z,61.40
2018-02-19T14:50:05.408Z,61.98
2018-02-19T14:52:32.928Z,62.36
2018-02-19T14:55:00.454Z,61.14
2018-02-19T14:57:28.005Z,61.02
2018-02-19T14:59:55.522Z,61.56
2018-02-19T15:02:23.089Z,61.25
2018-02-19T15:04:50.614Z,60.98
2018-02-19T15:07:18.125Z,61.95
2018-02-19T15:09:45.680Z,61.59
2018-02-19T15:12:13.213Z,61.55
2018-02-19T15:14:40.734Z,61.24
2018-02-19T15:17:08.251Z,62.14
2018-02-19T15:19:35.765Z,62.58
2018-02-19T15:22:03.472Z,62.87
2018-02-19T15:24:30.987Z,63.23
2018-02-19T15:26:58.512Z,63.00
2018-02-19T15:29:26.040Z,62.77
2018-02-19T15:31:53.605Z,62.13
2018-02-19T15:34:21.145Z,61.97
2018-02-19T15:36:48.666Z,63.08
2018-02-19T15:39:16.200Z,64.10
2018-02-19T15:41:43.730Z,63.29
2018-02-19T15:44:11.817Z,63.62
2018-02-19T15:46:39.401Z,63.37
2018-02-19T15:49:06.930Z,63.02
2018-02-19T15:51:34.517Z,62.33
2018-02-19T15:54:02.041Z,62.54
2018-02-19T15:56:29.672Z,64.44
2018-02-19T15:58:57.267Z,64.50
2018-02-19T16:01:24.826Z,64.58
2018-02-19T16:03:52.360Z,64.09
2018-02-19T16:06:19.876Z,64.47
2018-02-19T16:08:47.394Z,64.09
2018-02-19T16:11:14.913Z,64.74
2018-02-19T16:13:42.455Z,64.19
2018-02-19T16:16:09.994Z,65.17
2018-02-19T16:18:37.542Z,65.94
2018-02-19T16:21:05.075Z,65.50
2018-02-19T16:23:32.660Z,64.25
2018-02-19T16:26:00.221Z,64.97
2018-02-19T16:28:27.787Z,65.49
2018-02-19T16:30:55.459Z,64.79
2018-02-19T16:33:23.240Z,64.82
2018-02-19T16:35:50.762Z,65.20
2018-02-19T16:38:18.283Z,64.78
2018-02-19T16:40:45.813Z,64.71
2018-02-19T16:43:13.428Z,65.15
2018-02-19T16:45:40.973Z,64.77
2018-02-19T16:48:08.758Z,65.20
2018-02-19T16:50:36.295Z,65.55
2018-02-19T16:53:03.866Z,64.77
2018-02-19T16:55:31.428Z,64.64
2018-02-19T16:57:58.979Z,64.59
2018-02-19T17:00:26.554Z,64.71
2018-02-19T17:02:54.079Z,65.62
2018-02-19T17:05:21.899Z,65.44
2018-02-19T17:07:49.470Z,65.57
2018-02-19T17:10:16.992Z,65.20
2018-02-19T17:12:44.564Z,66.11
2018-02-19T17:15:12.134Z,65.57
2018-02-19T17:17:39.673Z,66.04
2018-02-19T17:20:07.263Z,65.57
2018-02-19T17:22:34.791Z,65.46
2018-02-19T17:25:02.514Z,65.28
2018-02-19T17:27:30.032Z,65.85
2018-02-19T17:29:57.619Z,65.17
2018-02-19T17:32:25.141Z,65.01
2018-02-19T17:34:54.224Z,64.66
2018-02-19T17:37:21.811Z,65.58
2018-02-19T17:39:49.666Z,65.68
2018-02-19T17:42:17.182Z,65.07
2018-02-19T17:44:45.931Z,65.52
2018-02-19T17:47:13.720Z,65.03
2018-02-19T17:49:41.521Z,64.60
2018-02-19T17:52:09.561Z,64.81
2018-02-19T17:54:37.092Z,64.68
2018-02-19T17:57:04.629Z,64.60
2018-02-19T17:59:32.206Z,65.40
2018-02-19T18:01:59.951Z,65.84
2018-02-19T18:04:27.514Z,65.02
2018-02-19T18:06:55.073Z,65.18
2018-02-19T18:09:22.620Z,65.18
2018-02-19T18:11:50.176Z,65.21
2018-02-19T18:14:17.745Z,65.14
2018-02-19T18:16:45.294Z,64.92
2018-02-19T18:19:12.834Z,65.23
2018-02-19T18:21:40.373Z,65.32
2018-02-19T18:24:07.952Z,66.19
2018-02-19T18:26:36.518Z,75.07
2018-02-19T18:29:04.053Z,73.57
2018-02-19T18:31:31.946Z,72.60
2018-02-19T18:33:59.546Z,72.06
2018-02-19T18:36:27.102Z,71.61
2018-02-19T18:38:54.650Z,71.41
2018-02-19T18:41:22.197Z,71.85
2018-02-19T18:43:50.028Z,71.75
2018-02-19T18:46:17.573Z,70.17
2018-02-19T18:48:45.196Z,70.69
2018-02-19T18:51:12.779Z,71.04
2018-02-19T18:53:40.373Z,71.16
2018-02-19T18:56:07.930Z,70.71
2018-02-19T18:58:35.514Z,75.41
2018-02-19T19:01:03.140Z,72.93
2018-02-19T19:03:30.711Z,72.50
2018-02-19T19:05:58.247Z,72.62
2018-02-19T19:08:37.360Z,71.64
2018-02-19T19:11:04.910Z,72.17
2018-02-19T19:13:32.448Z,72.21
2018-02-19T19:15:59.980Z,72.80
2018-02-19T19:18:27.550Z,72.50
2018-02-19T19:20:55.121Z,71.40
2018-02-19T19:23:22.878Z,72.85
2018-02-19T19:25:50.525Z,72.55
2018-02-19T19:28:18.089Z,73.08
2018-02-19T19:30:45.770Z,72.66
2018-02-19T19:33:13.685Z,71.72
2018-02-19T19:35:41.332Z,72.82
2018-02-19T19:38:08.872Z,72.50
2018-02-19T19:40:36.572Z,72.16
2018-02-19T19:43:05.278Z,72.89
2018-02-19T19:45:33.014Z,73.07
2018-02-19T19:48:00.520Z,72.13
2018-02-19T19:50:28.033Z,71.70
2018-02-19T19:52:55.662Z,72.42
2018-02-19T19:55:23.229Z,71.90
2018-02-19T19:57:50.755Z,73.35
2018-02-19T20:00:18.326Z,72.91
2018-02-19T20:02:45.884Z,71.99
2018-02-19T20:05:13.414Z,73.27
2018-02-19T20:07:41.136Z,72.90
2018-02-19T20:10:08.728Z,72.60
2018-02-19T20:12:36.273Z,72.23
2018-02-19T20:15:03.796Z,72.63
2018-02-19T20:17:31.361Z,72.78
2018-02-19T20:19:58.882Z,72.30
2018-02-19T20:22:26.422Z,72.60
2018-02-19T20:24:53.953Z,72.49
2018-02-19T20:27:21.505Z,71.66
2018-02-19T20:29:49.027Z,71.55
2018-02-19T20:32:16.547Z,72.43
2018-02-19T20:34:44.086Z,72.15
2018-02-19T20:37:11.626Z,72.36
2018-02-19T20:39:39.182Z,72.18
2018-02-19T20:42:06.768Z,72.44
2018-02-19T20:44:34.298Z,72.51
2018-02-19T20:47:01.843Z,72.09
2018-02-19T20:49:29.419Z,72.30
2018-02-19T20:51:56.950Z,71.94
2018-02-19T20:54:24.511Z,72.93
2018-02-19T20:56:52.034Z,72.06
2018-02-19T20:59:19.574Z,72.89
2018-02-19T21:01:47.119Z,71.73
2018-02-19T21:04:14.709Z,72.11
2018-02-19T21:06:43.197Z,71.79
2018-02-19T21:09:10.750Z,71.51
2018-02-19T21:11:38.319Z,72.81
2018-02-19T21:14:05.875Z,71.54
2018-02-19T21:16:33.408Z,72.91
2018-02-19T21:19:00.967Z,72.24
2018-02-19T21:21:28.500Z,72.48
2018-02-19T21:23:56.081Z,72.77
2018-02-19T21:26:23.638Z,72.91
2018-02-19T21:28:51.168Z,72.05
2018-02-19T21:31:18.873Z,72.37
2018-02-19T21:33:46.613Z,72.25
2018-02-19T21:36:14.236Z,71.95
2018-02-19T21:38:41.758Z,72.00
2018-02-19T21:41:09.262Z,72.17
2018-02-19T21:43:36.790Z,71.91
2018-02-19T21:46:04.316Z,71.16
2018-02-19T21:48:31.952Z,72.14
2018-02-19T21:50:59.508Z,71.42
2018-02-19T21:53:27.068Z,71.76
2018-02-19T21:55:54.818Z,72.55
2018-02-19T21:58:22.344Z,71.91
2018-02-19T22:00:50.702Z,72.39
2018-02-19T22:03:18.228Z,71.51
2018-02-19T22:05:45.764Z,72.32
2018-02-19T22:08:13.278Z,73.02
2018-02-19T22:10:40.788Z,72.85
2018-02-19T22:13:08.326Z,72.27
2018-02-19T22:15:35.851Z,72.70
2018-02-19T22:18:03.385Z,71.98
2018-02-19T22:20:30.910Z,71.63
2018-02-19T22:22:58.427Z,72.54
2018-02-19T22:25:25.981Z,71.12
2018-02-19T22:27:53.495Z,71.20
2018-02-19T22:30:21.018Z,73.10
2018-02-19T22:32:48.588Z,73.20
2018-02-19T22:35:16.117Z,72.13
2018-02-19T22:37:43.637Z,71.57
2018-02-19T22:40:11.144Z,73.08
2018-02-19T22:42:38.656Z,71.89
2018-02-19T22:45:06.182Z,72.55
2018-02-19T22:47:33.706Z,71.29
2018-02-19T22:50:01.238Z,72.67
2018-02-19T22:52:28.754Z,72.71
2018-02-19T22:54:56.290Z,72.66
2018-02-19T22:57:23.948Z,72.96
2018-02-19T22:59:51.475Z,71.64
2018-02-19T23:02:19.070Z,72.92
2018-02-19T23:04:46.597Z,71.17
2018-02-19T23:07:14.115Z,72.25
2018-02-19T23:09:41.640Z,72.23
2018-02-19T23:12:09.254Z,73.00
2018-02-19T23:14:36.801Z,72.79
2018-02-19T23:17:04.327Z,73.26
2018-02-19T23:19:31.902Z,71.82
2018-02-19T23:21:59.435Z,71.90
2018-02-19T23:24:26.951Z,73.17
2018-02-19T23:26:54.539Z,72.33
2018-02-19T23:29:22.078Z,71.79
2018-02-19T23:31:50.252Z,73.21
2018-02-19T23:34:17.768Z,70.51
2018-02-19T23:36:45.287Z,72.10
2018-02-19T23:39:12.801Z,71.77
2018-02-19T23:41:40.314Z,73.98
2018-02-19T23:44:07.838Z,72.64
2018-02-19T23:46:35.420Z,71.95
2018-02-19T23:49:02.954Z,71.53
2018-02-19T23:51:30.479Z,72.33
2018-02-19T23:53:58.423Z,72.09
2018-02-19T23:56:25.966Z,70.99
2018-02-19T23:58:53.534Z,72.66
